Omaha, Nebraska
Current Conditions -  °F | °C
As of 4:52 PM on Saturday 20 Dec 2014 (Local Time) from KOMA Reporting Station
Haze Haze  
Wind Chill: 26°   Ceiling: 500
Heat Index: 34°   Visibility: 2mi
Dew Point: 32°   Wind: 10mph
Humidity: 92%   Direction: 170°S
Pressure: 30.09"   Gusts: NA
Location:  41.26°N, 95.94°W
Report Text: KOMA 202252Z 17009KT 2SM BR OVC005 01/00 A3009 RMK AO2 SLP198 T00110000
Loading
Personal Weather Stations






























Interactive Weather Map New forecast layout! Learn more

10-Day Weather Forecast

Advertisements
Track Severe Weather on mobile